sensor_id;sensor_type;location;lat;lon;timestamp;P1;durP1;ratioP1;P2;durP2;ratioP2
21955;SDS011;11142;49.930;8.606;2024-01-15T00:02:13;34.60;;;11.35;;
21955;SDS011;11142;49.930;8.606;2024-01-15T00:04:41;36.55;;;13.60;;
21955;SDS011;11142;49.930;8.606;2024-01-15T00:07:11;33.17;;;10.55;;
21955;SDS011;11142;49.930;8.606;2024-01-15T00:09:40;36.47;;;13.45;;
21955;SDS011;11142;49.930;8.606;2024-01-15T00:12:08;40.72;;;12.50;;
21955;SDS011;11142;49.930;8.606;2024-01-15T00:14:38;34.53;;;12.70;;
21955;SDS011;11142;49.930;8.606;2024-01-15T00:17:06;35.60;;;12.20;;
21955;SDS011;11142;49.930;8.606;2024-01-15T00:19:34;41.50;;;14.52;;
21955;SDS011;11142;49.930;8.606;2024-01-15T00:22:03;37.17;;;13.73;;
21955;SDS011;11142;49.930;8.606;2024-01-15T00:24:31;35.00;;;11.93;;
21955;SDS011;11142;49.930;8.606;2024-01-15T00:27:00;38.00;;;12.35;;
21955;SDS011;11142;49.930;8.606;2024-01-15T00:29:28;31.13;;;11.95;;
21955;SDS011;11142;49.930;8.606;2024-01-15T00:31:58;36.30;;;12.02;;
21955;SDS011;11142;49.930;8.606;2024-01-15T00:34:26;41.88;;;13.43;;
21955;SDS011;11142;49.930;8.606;2024-01-15T00:36:55;32.55;;;11.00;;
21955;SDS011;11142;49.930;8.606;2024-01-15T00:39:23;34.72;;;12.00;;
21955;SDS011;11142;49.930;8.606;2024-01-15T00:41:52;35.78;;;13.43;;
21955;SDS011;11142;49.930;8.606;2024-01-15T00:44:20;36.20;;;13.95;;
21955;SDS011;11142;49.930;8.606;2024-01-15T00:46:52;44.30;;;13.85;;
21955;SDS011;11142;49.930;8.606;2024-01-15T00:49:21;29.20;;;11.18;;
21955;SDS011;11142;49.930;8.606;2024-01-15T00:51:50;40.08;;;13.15;;
21955;SDS011;11142;49.930;8.606;2024-01-15T00:54:18;41.42;;;12.68;;
21955;SDS011;11142;49.930;8.606;2024-01-15T00:56:46;37.55;;;13.60;;
21955;SDS011;11142;49.930;8.606;2024-01-15T00:59:14;37.45;;;13.88;;
21955;SDS011;11142;49.930;8.606;2024-01-15T01:01:43;34.65;;;11.55;;
21955;SDS011;11142;49.930;8.606;2024-01-15T01:04:12;41.15;;;12.13;;
21955;SDS011;11142;49.930;8.606;2024-01-15T01:06:42;31.85;;;12.60;;
21955;SDS011;11142;49.930;8.606;2024-01-15T01:09:11;42.08;;;14.25;;
21955;SDS011;11142;49.930;8.606;2024-01-15T01:11:39;45.38;;;13.38;;
21955;SDS011;11142;49.930;8.606;2024-01-15T01:14:08;33.70;;;12.27;;
21955;SDS011;11142;49.930;8.606;2024-01-15T01:16:36;39.63;;;13.40;;
21955;SDS011;11142;49.930;8.606;2024-01-15T01:19:06;30.92;;;11.88;;
21955;SDS011;11142;49.930;8.606;2024-01-15T01:21:35;35.38;;;13.20;;
21955;SDS011;11142;49.930;8.606;2024-01-15T01:24:07;38.05;;;13.55;;
21955;SDS011;11142;49.930;8.606;2024-01-15T01:26:35;34.42;;;12.70;;
21955;SDS011;11142;49.930;8.606;2024-01-15T01:29:03;38.20;;;11.85;;
21955;SDS011;11142;49.930;8.606;2024-01-15T01:31:32;38.85;;;14.85;;
21955;SDS011;11142;49.930;8.606;2024-01-15T01:34:00;37.08;;;12.55;;
21955;SDS011;11142;49.930;8.606;2024-01-15T01:36:28;35.60;;;12.88;;
21955;SDS011;11142;49.930;8.606;2024-01-15T01:38:59;43.95;;;11.93;;
21955;SDS011;11142;49.930;8.606;2024-01-15T01:41:28;48.58;;;13.75;;
21955;SDS011;11142;49.930;8.606;2024-01-15T01:43:56;30.80;;;12.90;;
21955;SDS011;11142;49.930;8.606;2024-01-15T01:46:24;28.50;;;10.48;;
21955;SDS011;11142;49.930;8.606;2024-01-15T01:48:55;43.35;;;12.15;;
21955;SDS011;11142;49.930;8.606;2024-01-15T01:51:31;29.77;;;11.65;;
21955;SDS011;11142;49.930;8.606;2024-01-15T01:54:02;39.28;;;13.40;;
21955;SDS011;11142;49.930;8.606;2024-01-15T01:56:32;35.17;;;11.98;;
21955;SDS011;11142;49.930;8.606;2024-01-15T01:59:01;39.15;;;13.88;;
21955;SDS011;11142;49.930;8.606;2024-01-15T02:01:31;40.33;;;13.07;;
21955;SDS011;11142;49.930;8.606;2024-01-15T02:04:00;42.83;;;14.75;;
21955;SDS011;11142;49.930;8.606;2024-01-15T02:06:28;33.97;;;9.90;;
21955;SDS011;11142;49.930;8.606;2024-01-15T02:08:57;40.75;;;12.38;;
21955;SDS011;11142;49.930;8.606;2024-01-15T02:11:25;37.05;;;13.60;;
21955;SDS011;11142;49.930;8.606;2024-01-15T02:13:55;35.90;;;12.98;;
21955;SDS011;11142;49.930;8.606;2024-01-15T02:16:22;37.53;;;12.73;;
21955;SDS011;11142;49.930;8.606;2024-01-15T02:18:51;33.97;;;10.93;;
21955;SDS011;11142;49.930;8.606;2024-01-15T02:21:19;42.42;;;14.30;;
21955;SDS011;11142;49.930;8.606;2024-01-15T02:23:48;42.25;;;13.43;;
21955;SDS011;11142;49.930;8.606;2024-01-15T02:26:16;29.70;;;11.65;;
21955;SDS011;11142;49.930;8.606;2024-01-15T02:28:45;32.22;;;11.43;;
21955;SDS011;11142;49.930;8.606;2024-01-15T02:31:13;34.20;;;13.07;;
21955;SDS011;11142;49.930;8.606;2024-01-15T02:33:41;40.45;;;11.38;;
21955;SDS011;11142;49.930;8.606;2024-01-15T02:36:10;36.55;;;12.38;;
21955;SDS011;11142;49.930;8.606;2024-01-15T02:38:38;35.30;;;13.65;;
21955;SDS011;11142;49.930;8.606;2024-01-15T02:41:09;40.60;;;13.18;;
21955;SDS011;11142;49.930;8.606;2024-01-15T02:43:37;45.20;;;14.50;;
21955;SDS011;11142;49.930;8.606;2024-01-15T02:46:05;34.00;;;12.23;;
21955;SDS011;11142;49.930;8.606;2024-01-15T02:48:33;34.75;;;13.23;;
21955;SDS011;11142;49.930;8.606;2024-01-15T02:51:03;38.13;;;13.60;;
21955;SDS011;11142;49.930;8.606;2024-01-15T02:53:31;31.27;;;12.73;;
21955;SDS011;11142;49.930;8.606;2024-01-15T02:55:59;43.20;;;12.10;;
21955;SDS011;11142;49.930;8.606;2024-01-15T02:58:28;32.42;;;12.65;;
21955;SDS011;11142;49.930;8.606;2024-01-15T03:00:56;38.15;;;12.07;;
21955;SDS011;11142;49.930;8.606;2024-01-15T03:03:24;33.63;;;11.75;;
21955;SDS011;11142;49.930;8.606;2024-01-15T03:05:52;35.15;;;11.30;;
21955;SDS011;11142;49.930;8.606;2024-01-15T03:08:21;35.20;;;11.77;;
21955;SDS011;11142;49.930;8.606;2024-01-15T03:10:49;41.35;;;12.98;;
21955;SDS011;11142;49.930;8.606;2024-01-15T03:13:17;37.75;;;12.40;;
21955;SDS011;11142;49.930;8.606;2024-01-15T03:15:47;32.22;;;10.73;;
21955;SDS011;11142;49.930;8.606;2024-01-15T03:18:15;36.65;;;12.20;;
21955;SDS011;11142;49.930;8.606;2024-01-15T03:20:43;44.00;;;13.02;;
21955;SDS011;11142;49.930;8.606;2024-01-15T03:23:11;29.20;;;11.40;;
21955;SDS011;11142;49.930;8.606;2024-01-15T03:25:39;34.08;;;12.35;;
21955;SDS011;11142;49.930;8.606;2024-01-15T03:28:07;35.28;;;12.15;;
21955;SDS011;11142;49.930;8.606;2024-01-15T03:30:35;32.08;;;11.27;;
21955;SDS011;11142;49.930;8.606;2024-01-15T03:33:05;33.58;;;11.27;;
21955;SDS011;11142;49.930;8.606;2024-01-15T03:35:33;36.50;;;12.77;;
21955;SDS011;11142;49.930;8.606;2024-01-15T03:38:01;33.00;;;11.88;;
21955;SDS011;11142;49.930;8.606;2024-01-15T03:40:29;31.30;;;10.02;;
21955;SDS011;11142;49.930;8.606;2024-01-15T03:42:57;36.70;;;12.18;;
21955;SDS011;11142;49.930;8.606;2024-01-15T03:45:25;28.70;;;10.50;;
21955;SDS011;11142;49.930;8.606;2024-01-15T03:47:53;36.97;;;12.15;;
21955;SDS011;11142;49.930;8.606;2024-01-15T03:50:22;28.13;;;10.63;;
21955;SDS011;11142;49.930;8.606;2024-01-15T03:52:51;34.25;;;10.98;;
21955;SDS011;11142;49.930;8.606;2024-01-15T03:55:19;32.53;;;11.35;;
21955;SDS011;11142;49.930;8.606;2024-01-15T03:57:47;31.40;;;11.98;;
21955;SDS011;11142;49.930;8.606;2024-01-15T04:00:16;34.22;;;11.15;;
21955;SDS011;11142;49.930;8.606;2024-01-15T04:02:44;36.08;;;12.00;;
21955;SDS011;11142;49.930;8.606;2024-01-15T04:05:12;34.88;;;12.50;;
21955;SDS011;11142;49.930;8.606;2024-01-15T04:07:42;33.55;;;12.65;;
21955;SDS011;11142;49.930;8.606;2024-01-15T04:10:10;36.53;;;11.85;;
21955;SDS011;11142;49.930;8.606;2024-01-15T04:12:38;33.85;;;12.27;;
21955;SDS011;11142;49.930;8.606;2024-01-15T04:15:08;30.25;;;11.90;;
21955;SDS011;11142;49.930;8.606;2024-01-15T04:17:36;28.48;;;11.05;;
21955;SDS011;11142;49.930;8.606;2024-01-15T04:20:04;34.90;;;11.57;;
21955;SDS011;11142;49.930;8.606;2024-01-15T04:22:34;36.47;;;11.32;;
21955;SDS011;11142;49.930;8.606;2024-01-15T04:25:07;36.83;;;12.25;;
21955;SDS011;11142;49.930;8.606;2024-01-15T04:27:36;37.90;;;11.35;;
21955;SDS011;11142;49.930;8.606;2024-01-15T04:30:04;29.20;;;10.80;;
21955;SDS011;11142;49.930;8.606;2024-01-15T04:32:33;28.65;;;10.88;;
21955;SDS011;11142;49.930;8.606;2024-01-15T04:35:01;33.10;;;11.38;;
21955;SDS011;11142;49.930;8.606;2024-01-15T04:37:31;33.10;;;11.60;;
21955;SDS011;11142;49.930;8.606;2024-01-15T04:39:59;32.67;;;11.95;;
21955;SDS011;11142;49.930;8.606;2024-01-15T04:42:29;32.80;;;11.63;;
21955;SDS011;11142;49.930;8.606;2024-01-15T04:44:58;37.35;;;12.57;;
21955;SDS011;11142;49.930;8.606;2024-01-15T04:47:26;28.95;;;10.57;;
21955;SDS011;11142;49.930;8.606;2024-01-15T04:49:54;36.90;;;12.13;;
21955;SDS011;11142;49.930;8.606;2024-01-15T04:52:23;36.70;;;11.18;;
21955;SDS011;11142;49.930;8.606;2024-01-15T04:54:50;28.17;;;10.23;;
21955;SDS011;11142;49.930;8.606;2024-01-15T04:57:18;32.28;;;11.02;;
21955;SDS011;11142;49.930;8.606;2024-01-15T04:59:48;37.30;;;11.27;;
21955;SDS011;11142;49.930;8.606;2024-01-15T05:02:16;27.05;;;10.07;;
21955;SDS011;11142;49.930;8.606;2024-01-15T05:04:44;36.22;;;11.57;;
21955;SDS011;11142;49.930;8.606;2024-01-15T05:07:12;26.13;;;8.90;;
21955;SDS011;11142;49.930;8.606;2024-01-15T05:09:40;34.58;;;11.98;;
21955;SDS011;11142;49.930;8.606;2024-01-15T05:12:08;30.25;;;10.30;;
21955;SDS011;11142;49.930;8.606;2024-01-15T05:14:36;29.15;;;10.90;;
21955;SDS011;11142;49.930;8.606;2024-01-15T05:17:05;28.48;;;11.18;;
21955;SDS011;11142;49.930;8.606;2024-01-15T05:19:37;32.55;;;12.18;;
21955;SDS011;11142;49.930;8.606;2024-01-15T05:22:05;28.92;;;9.77;;
21955;SDS011;11142;49.930;8.606;2024-01-15T05:24:33;25.73;;;9.13;;
21955;SDS011;11142;49.930;8.606;2024-01-15T05:27:01;34.15;;;12.07;;
21955;SDS011;11142;49.930;8.606;2024-01-15T05:29:29;32.35;;;11.18;;
21955;SDS011;11142;49.930;8.606;2024-01-15T05:31:57;31.05;;;10.98;;
21955;SDS011;11142;49.930;8.606;2024-01-15T05:34:29;29.73;;;10.13;;
21955;SDS011;11142;49.930;8.606;2024-01-15T05:36:57;33.88;;;10.93;;
21955;SDS011;11142;49.930;8.606;2024-01-15T05:39:25;30.58;;;10.70;;
21955;SDS011;11142;49.930;8.606;2024-01-15T05:41:54;27.10;;;11.45;;
21955;SDS011;11142;49.930;8.606;2024-01-15T05:44:21;31.60;;;10.70;;
21955;SDS011;11142;49.930;8.606;2024-01-15T05:46:49;30.75;;;9.10;;
21955;SDS011;11142;49.930;8.606;2024-01-15T05:49:17;31.70;;;10.73;;
21955;SDS011;11142;49.930;8.606;2024-01-15T05:51:46;27.73;;;10.07;;
21955;SDS011;11142;49.930;8.606;2024-01-15T05:54:17;33.45;;;12.00;;
21955;SDS011;11142;49.930;8.606;2024-01-15T05:56:46;38.50;;;13.05;;
21955;SDS011;11142;49.930;8.606;2024-01-15T05:59:14;34.22;;;11.57;;
21955;SDS011;11142;49.930;8.606;2024-01-15T06:01:42;29.60;;;11.82;;
21955;SDS011;11142;49.930;8.606;2024-01-15T06:04:12;33.58;;;10.93;;
21955;SDS011;11142;49.930;8.606;2024-01-15T06:06:41;41.13;;;12.15;;
21955;SDS011;11142;49.930;8.606;2024-01-15T06:09:10;27.10;;;10.25;;
21955;SDS011;11142;49.930;8.606;2024-01-15T06:11:39;31.20;;;11.07;;
21955;SDS011;11142;49.930;8.606;2024-01-15T06:14:07;34.55;;;11.02;;
21955;SDS011;11142;49.930;8.606;2024-01-15T06:16:35;32.08;;;11.57;;
21955;SDS011;11142;49.930;8.606;2024-01-15T06:19:03;33.78;;;10.88;;
21955;SDS011;11142;49.930;8.606;2024-01-15T06:21:31;39.95;;;13.40;;
21955;SDS011;11142;49.930;8.606;2024-01-15T06:23:59;34.88;;;11.45;;
21955;SDS011;11142;49.930;8.606;2024-01-15T06:26:28;32.78;;;11.43;;
21955;SDS011;11142;49.930;8.606;2024-01-15T06:28:57;33.17;;;12.40;;
21955;SDS011;11142;49.930;8.606;2024-01-15T06:31:25;28.77;;;12.18;;
21955;SDS011;11142;49.930;8.606;2024-01-15T06:33:53;27.15;;;10.38;;
21955;SDS011;11142;49.930;8.606;2024-01-15T06:36:22;34.05;;;12.02;;
21955;SDS011;11142;49.930;8.606;2024-01-15T06:38:50;33.85;;;12.07;;
21955;SDS011;11142;49.930;8.606;2024-01-15T06:41:18;30.60;;;10.45;;
21955;SDS011;11142;49.930;8.606;2024-01-15T06:43:47;40.50;;;11.18;;
21955;SDS011;11142;49.930;8.606;2024-01-15T06:46:19;34.92;;;12.23;;
21955;SDS011;11142;49.930;8.606;2024-01-15T06:48:47;31.60;;;11.93;;
21955;SDS011;11142;49.930;8.606;2024-01-15T06:51:16;38.72;;;11.23;;
21955;SDS011;11142;49.930;8.606;2024-01-15T06:53:44;38.13;;;11.48;;
21955;SDS011;11142;49.930;8.606;2024-01-15T06:56:12;27.25;;;11.45;;
21955;SDS011;11142;49.930;8.606;2024-01-15T06:58:40;33.17;;;12.77;;
21955;SDS011;11142;49.930;8.606;2024-01-15T07:01:09;31.35;;;11.20;;
21955;SDS011;11142;49.930;8.606;2024-01-15T07:03:37;31.20;;;11.13;;
21955;SDS011;11142;49.930;8.606;2024-01-15T07:06:07;27.48;;;11.23;;
21955;SDS011;11142;49.930;8.606;2024-01-15T07:08:36;29.83;;;11.05;;
21955;SDS011;11142;49.930;8.606;2024-01-15T07:11:04;30.25;;;11.35;;
21955;SDS011;11142;49.930;8.606;2024-01-15T07:13:33;31.13;;;11.32;;
21955;SDS011;11142;49.930;8.606;2024-01-15T07:16:01;31.25;;;11.38;;
21955;SDS011;11142;49.930;8.606;2024-01-15T07:18:38;35.72;;;12.57;;
21955;SDS011;11142;49.930;8.606;2024-01-15T07:21:07;33.13;;;12.10;;
21955;SDS011;11142;49.930;8.606;2024-01-15T07:23:36;31.02;;;11.48;;
21955;SDS011;11142;49.930;8.606;2024-01-15T07:26:04;30.20;;;10.63;;
21955;SDS011;11142;49.930;8.606;2024-01-15T07:28:32;33.08;;;11.23;;
21955;SDS011;11142;49.930;8.606;2024-01-15T07:31:00;28.80;;;11.98;;
21955;SDS011;11142;49.930;8.606;2024-01-15T07:33:30;28.58;;;11.75;;
21955;SDS011;11142;49.930;8.606;2024-01-15T07:36:00;35.70;;;11.00;;
21955;SDS011;11142;49.930;8.606;2024-01-15T07:38:29;31.42;;;11.07;;
21955;SDS011;11142;49.930;8.606;2024-01-15T07:40:57;34.22;;;11.00;;
21955;SDS011;11142;49.930;8.606;2024-01-15T07:43:26;31.83;;;11.52;;
21955;SDS011;11142;49.930;8.606;2024-01-15T07:45:54;36.72;;;13.00;;
21955;SDS011;11142;49.930;8.606;2024-01-15T07:48:22;34.30;;;11.68;;
21955;SDS011;11142;49.930;8.606;2024-01-15T07:50:51;30.23;;;10.43;;
21955;SDS011;11142;49.930;8.606;2024-01-15T07:53:20;34.17;;;12.02;;
21955;SDS011;11142;49.930;8.606;2024-01-15T07:55:48;32.20;;;11.10;;
21955;SDS011;11142;49.930;8.606;2024-01-15T07:58:16;31.10;;;11.45;;
21955;SDS011;11142;49.930;8.606;2024-01-15T08:00:44;28.88;;;10.77;;
21955;SDS011;11142;49.930;8.606;2024-01-15T08:03:13;31.70;;;12.10;;
21955;SDS011;11142;49.930;8.606;2024-01-15T08:05:41;30.98;;;12.23;;
21955;SDS011;11142;49.930;8.606;2024-01-15T08:08:09;24.60;;;9.98;;
21955;SDS011;11142;49.930;8.606;2024-01-15T08:10:39;36.10;;;11.82;;
21955;SDS011;11142;49.930;8.606;2024-01-15T08:13:07;31.23;;;11.75;;
21955;SDS011;11142;49.930;8.606;2024-01-15T08:15:35;31.15;;;12.02;;
21955;SDS011;11142;49.930;8.606;2024-01-15T08:18:03;27.02;;;11.07;;
21955;SDS011;11142;49.930;8.606;2024-01-15T08:20:32;36.00;;;11.70;;
21955;SDS011;11142;49.930;8.606;2024-01-15T08:23:00;29.33;;;11.40;;
21955;SDS011;11142;49.930;8.606;2024-01-15T08:25:28;32.15;;;11.18;;
21955;SDS011;11142;49.930;8.606;2024-01-15T08:27:57;28.17;;;11.10;;
21955;SDS011;11142;49.930;8.606;2024-01-15T08:30:25;26.85;;;12.05;;
21955;SDS011;11142;49.930;8.606;2024-01-15T08:32:54;28.27;;;10.77;;
21955;SDS011;11142;49.930;8.606;2024-01-15T08:35:33;33.55;;;11.27;;
21955;SDS011;11142;49.930;8.606;2024-01-15T08:38:02;31.10;;;11.35;;
21955;SDS011;11142;49.930;8.606;2024-01-15T08:40:33;27.38;;;11.75;;
21955;SDS011;11142;49.930;8.606;2024-01-15T08:43:03;31.67;;;11.50;;
21955;SDS011;11142;49.930;8.606;2024-01-15T08:45:33;32.83;;;11.48;;
21955;SDS011;11142;49.930;8.606;2024-01-15T08:48:01;29.08;;;11.60;;
21955;SDS011;11142;49.930;8.606;2024-01-15T08:50:30;27.02;;;10.98;;
21955;SDS011;11142;49.930;8.606;2024-01-15T08:52:58;32.60;;;11.35;;
21955;SDS011;11142;49.930;8.606;2024-01-15T08:55:26;24.42;;;10.13;;
21955;SDS011;11142;49.930;8.606;2024-01-15T08:57:54;30.02;;;10.85;;
21955;SDS011;11142;49.930;8.606;2024-01-15T09:00:23;26.80;;;10.13;;
21955;SDS011;11142;49.930;8.606;2024-01-15T09:02:51;23.80;;;10.70;;
21955;SDS011;11142;49.930;8.606;2024-01-15T09:05:19;25.73;;;10.35;;
21955;SDS011;11142;49.930;8.606;2024-01-15T09:07:47;28.75;;;10.20;;
21955;SDS011;11142;49.930;8.606;2024-01-15T09:10:15;27.90;;;10.38;;
21955;SDS011;11142;49.930;8.606;2024-01-15T09:12:44;25.92;;;10.38;;
21955;SDS011;11142;49.930;8.606;2024-01-15T09:15:12;27.88;;;10.75;;
21955;SDS011;11142;49.930;8.606;2024-01-15T09:17:41;25.60;;;10.20;;
21955;SDS011;11142;49.930;8.606;2024-01-15T09:20:09;24.08;;;9.90;;
21955;SDS011;11142;49.930;8.606;2024-01-15T09:22:38;24.08;;;10.05;;
21955;SDS011;11142;49.930;8.606;2024-01-15T09:25:07;24.08;;;9.52;;
21955;SDS011;11142;49.930;8.606;2024-01-15T09:27:36;24.55;;;9.95;;
21955;SDS011;11142;49.930;8.606;2024-01-15T09:30:05;27.65;;;10.38;;
21955;SDS011;11142;49.930;8.606;2024-01-15T09:32:33;28.73;;;10.07;;
21955;SDS011;11142;49.930;8.606;2024-01-15T09:35:03;24.27;;;10.50;;
21955;SDS011;11142;49.930;8.606;2024-01-15T09:37:32;33.33;;;12.15;;
21955;SDS011;11142;49.930;8.606;2024-01-15T09:40:13;33.55;;;11.63;;
21955;SDS011;11142;49.930;8.606;2024-01-15T09:42:42;24.73;;;11.23;;
21955;SDS011;11142;49.930;8.606;2024-01-15T09:45:11;24.75;;;10.70;;
21955;SDS011;11142;49.930;8.606;2024-01-15T09:47:39;23.92;;;10.93;;
21955;SDS011;11142;49.930;8.606;2024-01-15T09:50:13;33.50;;;11.73;;
21955;SDS011;11142;49.930;8.606;2024-01-15T09:52:43;28.58;;;11.13;;
21955;SDS011;11142;49.930;8.606;2024-01-15T09:55:13;24.80;;;9.95;;
21955;SDS011;11142;49.930;8.606;2024-01-15T09:57:42;28.10;;;11.35;;
21955;SDS011;11142;49.930;8.606;2024-01-15T10:00:12;26.75;;;11.13;;
21955;SDS011;11142;49.930;8.606;2024-01-15T10:02:40;29.00;;;9.68;;
21955;SDS011;11142;49.930;8.606;2024-01-15T10:05:09;22.50;;;10.68;;
21955;SDS011;11142;49.930;8.606;2024-01-15T10:07:38;24.00;;;10.68;;
21955;SDS011;11142;49.930;8.606;2024-01-15T10:10:08;28.45;;;12.35;;
21955;SDS011;11142;49.930;8.606;2024-01-15T10:12:38;31.40;;;11.73;;
21955;SDS011;11142;49.930;8.606;2024-01-15T10:15:09;27.40;;;10.52;;
21955;SDS011;11142;49.930;8.606;2024-01-15T10:17:37;26.90;;;11.65;;
21955;SDS011;11142;49.930;8.606;2024-01-15T10:20:07;28.90;;;10.98;;
21955;SDS011;11142;49.930;8.606;2024-01-15T10:22:40;28.20;;;10.50;;
21955;SDS011;11142;49.930;8.606;2024-01-15T10:25:10;28.05;;;11.30;;
21955;SDS011;11142;49.930;8.606;2024-01-15T10:27:38;26.35;;;10.20;;
21955;SDS011;11142;49.930;8.606;2024-01-15T10:30:07;25.52;;;11.07;;
21955;SDS011;11142;49.930;8.606;2024-01-15T10:32:35;25.48;;;10.23;;
21955;SDS011;11142;49.930;8.606;2024-01-15T10:35:04;24.80;;;10.70;;
21955;SDS011;11142;49.930;8.606;2024-01-15T10:37:35;27.90;;;11.23;;
21955;SDS011;11142;49.930;8.606;2024-01-15T10:40:05;26.17;;;10.23;;
21955;SDS011;11142;49.930;8.606;2024-01-15T10:42:34;24.13;;;9.73;;
21955;SDS011;11142;49.930;8.606;2024-01-15T10:45:02;29.17;;;11.25;;
21955;SDS011;11142;49.930;8.606;2024-01-15T10:47:30;28.23;;;11.40;;
21955;SDS011;11142;49.930;8.606;2024-01-15T10:49:58;26.80;;;10.85;;
21955;SDS011;11142;49.930;8.606;2024-01-15T10:52:27;27.80;;;11.55;;
21955;SDS011;11142;49.930;8.606;2024-01-15T10:54:56;28.73;;;12.02;;
21955;SDS011;11142;49.930;8.606;2024-01-15T10:57:27;21.23;;;10.32;;
21955;SDS011;11142;49.930;8.606;2024-01-15T10:59:56;25.95;;;10.68;;
21955;SDS011;11142;49.930;8.606;2024-01-15T11:02:25;19.63;;;8.38;;
21955;SDS011;11142;49.930;8.606;2024-01-15T11:04:53;17.38;;;7.40;;
21955;SDS011;11142;49.930;8.606;2024-01-15T11:07:22;20.02;;;9.75;;
21955;SDS011;11142;49.930;8.606;2024-01-15T11:09:55;25.05;;;9.05;;
21955;SDS011;11142;49.930;8.606;2024-01-15T11:12:26;22.02;;;9.52;;
21955;SDS011;11142;49.930;8.606;2024-01-15T11:15:00;22.55;;;9.65;;
21955;SDS011;11142;49.930;8.606;2024-01-15T11:20:26;19.48;;;8.55;;
21955;SDS011;11142;49.930;8.606;2024-01-15T11:22:55;16.55;;;7.05;;
21955;SDS011;11142;49.930;8.606;2024-01-15T11:25:24;17.15;;;8.13;;
21955;SDS011;11142;49.930;8.606;2024-01-15T11:28:04;20.75;;;8.40;;
21955;SDS011;11142;49.930;8.606;2024-01-15T11:30:32;17.08;;;7.85;;
21955;SDS011;11142;49.930;8.606;2024-01-15T11:33:03;16.42;;;8.57;;
21955;SDS011;11142;49.930;8.606;2024-01-15T11:35:49;17.85;;;7.53;;
21955;SDS011;11142;49.930;8.606;2024-01-15T11:38:27;18.65;;;7.68;;
21955;SDS011;11142;49.930;8.606;2024-01-15T11:40:58;17.80;;;7.95;;
21955;SDS011;11142;49.930;8.606;2024-01-15T11:43:29;16.35;;;6.65;;
21955;SDS011;11142;49.930;8.606;2024-01-15T11:45:59;14.40;;;7.05;;
21955;SDS011;11142;49.930;8.606;2024-01-15T11:48:33;15.00;;;7.28;;
21955;SDS011;11142;49.930;8.606;2024-01-15T11:51:11;17.45;;;6.55;;
21955;SDS011;11142;49.930;8.606;2024-01-15T11:53:43;16.38;;;6.43;;
21955;SDS011;11142;49.930;8.606;2024-01-15T11:56:14;17.83;;;6.37;;
21955;SDS011;11142;49.930;8.606;2024-01-15T11:58:44;14.55;;;6.60;;
21955;SDS011;11142;49.930;8.606;2024-01-15T12:01:13;15.60;;;6.00;;
21955;SDS011;11142;49.930;8.606;2024-01-15T12:03:41;15.43;;;6.97;;
21955;SDS011;11142;49.930;8.606;2024-01-15T12:06:09;16.88;;;7.00;;
21955;SDS011;11142;49.930;8.606;2024-01-15T12:08:38;13.02;;;6.95;;
21955;SDS011;11142;49.930;8.606;2024-01-15T12:11:06;18.17;;;7.00;;
21955;SDS011;11142;49.930;8.606;2024-01-15T12:13:41;11.35;;;6.03;;
21955;SDS011;11142;49.930;8.606;2024-01-15T12:16:10;15.52;;;7.65;;
21955;SDS011;11142;49.930;8.606;2024-01-15T12:18:39;15.20;;;7.18;;
21955;SDS011;11142;49.930;8.606;2024-01-15T12:21:09;14.43;;;6.25;;
21955;SDS011;11142;49.930;8.606;2024-01-15T12:23:37;15.20;;;7.18;;
21955;SDS011;11142;49.930;8.606;2024-01-15T12:26:06;13.77;;;5.93;;
21955;SDS011;11142;49.930;8.606;2024-01-15T12:28:37;12.63;;;5.60;;
21955;SDS011;11142;49.930;8.606;2024-01-15T12:31:06;16.90;;;7.20;;
21955;SDS011;11142;49.930;8.606;2024-01-15T12:33:36;15.85;;;7.05;;
21955;SDS011;11142;49.930;8.606;2024-01-15T12:36:05;13.95;;;6.10;;
21955;SDS011;11142;49.930;8.606;2024-01-15T12:38:33;17.20;;;7.13;;
21955;SDS011;11142;49.930;8.606;2024-01-15T12:41:01;14.57;;;6.97;;
21955;SDS011;11142;49.930;8.606;2024-01-15T12:43:29;15.35;;;7.35;;
21955;SDS011;11142;49.930;8.606;2024-01-15T12:45:57;17.13;;;6.95;;
21955;SDS011;11142;49.930;8.606;2024-01-15T12:48:25;15.95;;;6.55;;
21955;SDS011;11142;49.930;8.606;2024-01-15T12:50:54;16.80;;;6.93;;
21955;SDS011;11142;49.930;8.606;2024-01-15T12:53:22;13.35;;;5.65;;
21955;SDS011;11142;49.930;8.606;2024-01-15T12:55:50;12.45;;;6.30;;
21955;SDS011;11142;49.930;8.606;2024-01-15T12:58:18;14.05;;;6.28;;
21955;SDS011;11142;49.930;8.606;2024-01-15T13:00:47;15.18;;;6.90;;
21955;SDS011;11142;49.930;8.606;2024-01-15T13:03:15;11.25;;;5.80;;
21955;SDS011;11142;49.930;8.606;2024-01-15T13:05:43;12.60;;;5.55;;
21955;SDS011;11142;49.930;8.606;2024-01-15T13:08:13;13.80;;;5.80;;
21955;SDS011;11142;49.930;8.606;2024-01-15T13:10:42;14.25;;;6.13;;
21955;SDS011;11142;49.930;8.606;2024-01-15T13:13:12;16.40;;;5.57;;
21955;SDS011;11142;49.930;8.606;2024-01-15T13:15:40;14.63;;;6.05;;
21955;SDS011;11142;49.930;8.606;2024-01-15T13:18:09;15.77;;;6.32;;
21955;SDS011;11142;49.930;8.606;2024-01-15T13:20:37;10.02;;;5.88;;
21955;SDS011;11142;49.930;8.606;2024-01-15T13:23:05;12.48;;;5.78;;
21955;SDS011;11142;49.930;8.606;2024-01-15T13:25:34;15.88;;;6.25;;
21955;SDS011;11142;49.930;8.606;2024-01-15T13:28:04;12.88;;;5.55;;
21955;SDS011;11142;49.930;8.606;2024-01-15T13:30:34;15.90;;;6.20;;
21955;SDS011;11142;49.930;8.606;2024-01-15T13:33:02;8.93;;;5.00;;
21955;SDS011;11142;49.930;8.606;2024-01-15T13:35:32;10.32;;;4.63;;
21955;SDS011;11142;49.930;8.606;2024-01-15T13:38:00;10.98;;;4.38;;
21955;SDS011;11142;49.930;8.606;2024-01-15T13:40:28;12.88;;;5.57;;
21955;SDS011;11142;49.930;8.606;2024-01-15T13:42:57;11.65;;;5.72;;
21955;SDS011;11142;49.930;8.606;2024-01-15T13:45:25;10.93;;;5.00;;
21955;SDS011;11142;49.930;8.606;2024-01-15T13:47:53;12.98;;;6.05;;
21955;SDS011;11142;49.930;8.606;2024-01-15T13:50:21;8.80;;;4.75;;
21955;SDS011;11142;49.930;8.606;2024-01-15T13:52:51;11.30;;;5.07;;
21955;SDS011;11142;49.930;8.606;2024-01-15T13:55:19;12.02;;;5.20;;
21955;SDS011;11142;49.930;8.606;2024-01-15T13:57:47;11.80;;;5.22;;
21955;SDS011;11142;49.930;8.606;2024-01-15T14:00:17;12.32;;;5.10;;
21955;SDS011;11142;49.930;8.606;2024-01-15T14:02:46;10.20;;;4.72;;
21955;SDS011;11142;49.930;8.606;2024-01-15T14:05:15;15.55;;;5.38;;
21955;SDS011;11142;49.930;8.606;2024-01-15T14:07:43;11.27;;;5.03;;
21955;SDS011;11142;49.930;8.606;2024-01-15T14:10:11;8.57;;;4.63;;
21955;SDS011;11142;49.930;8.606;2024-01-15T14:12:39;10.70;;;5.03;;
21955;SDS011;11142;49.930;8.606;2024-01-15T14:15:07;16.25;;;6.05;;
21955;SDS011;11142;49.930;8.606;2024-01-15T14:17:38;11.68;;;5.35;;
21955;SDS011;11142;49.930;8.606;2024-01-15T14:20:06;8.07;;;3.65;;
21955;SDS011;11142;49.930;8.606;2024-01-15T14:22:36;11.30;;;4.70;;
21955;SDS011;11142;49.930;8.606;2024-01-15T14:25:04;10.25;;;4.22;;
21955;SDS011;11142;49.930;8.606;2024-01-15T14:27:33;12.25;;;5.18;;
21955;SDS011;11142;49.930;8.606;2024-01-15T14:30:00;11.27;;;5.07;;
21955;SDS011;11142;49.930;8.606;2024-01-15T14:32:29;10.30;;;3.90;;
21955;SDS011;11142;49.930;8.606;2024-01-15T14:34:58;10.18;;;4.63;;
21955;SDS011;11142;49.930;8.606;2024-01-15T14:37:26;9.23;;;3.97;;
21955;SDS011;11142;49.930;8.606;2024-01-15T14:39:54;10.35;;;4.85;;